sensor_id;sensor_type;location;lat;lon;timestamp;P1;durP1;ratioP1;P2;durP2;ratioP2
70588;SDS011;58152;49.202;18.744;2023-04-03T00:04:41;3.95;;;3.17;;
70588;SDS011;58152;49.202;18.744;2023-04-03T00:07:19;3.42;;;3.13;;
70588;SDS011;58152;49.202;18.744;2023-04-03T00:09:54;2.45;;;2.20;;
70588;SDS011;58152;49.202;18.744;2023-04-03T00:12:33;2.33;;;2.13;;
70588;SDS011;58152;49.202;18.744;2023-04-03T00:15:03;3.67;;;2.50;;
70588;SDS011;58152;49.202;18.744;2023-04-03T00:17:29;3.10;;;2.80;;
70588;SDS011;58152;49.202;18.744;2023-04-03T00:19:58;2.55;;;2.35;;
70588;SDS011;58152;49.202;18.744;2023-04-03T00:22:29;3.00;;;2.25;;
70588;SDS011;58152;49.202;18.744;2023-04-03T00:25:30;2.35;;;2.15;;
70588;SDS011;58152;49.202;18.744;2023-04-03T00:28:49;2.30;;;2.10;;
70588;SDS011;58152;49.202;18.744;2023-04-03T00:31:44;2.58;;;2.28;;
70588;SDS011;58152;49.202;18.744;2023-04-03T00:34:09;3.13;;;2.53;;
70588;SDS011;58152;49.202;18.744;2023-04-03T00:36:35;2.08;;;1.88;;
70588;SDS011;58152;49.202;18.744;2023-04-03T00:39:00;2.15;;;1.95;;
70588;SDS011;58152;49.202;18.744;2023-04-03T00:41:26;2.85;;;2.08;;
70588;SDS011;58152;49.202;18.744;2023-04-03T00:43:51;2.78;;;2.20;;
70588;SDS011;58152;49.202;18.744;2023-04-03T00:46:17;2.70;;;2.50;;
70588;SDS011;58152;49.202;18.744;2023-04-03T00:48:46;2.45;;;2.25;;
70588;SDS011;58152;49.202;18.744;2023-04-03T00:51:18;2.45;;;2.25;;
70588;SDS011;58152;49.202;18.744;2023-04-03T00:53:55;2.10;;;1.90;;
70588;SDS011;58152;49.202;18.744;2023-04-03T00:56:25;2.60;;;2.40;;
70588;SDS011;58152;49.202;18.744;2023-04-03T00:58:54;2.28;;;2.08;;
70588;SDS011;58152;49.202;18.744;2023-04-03T01:01:25;2.60;;;2.40;;
70588;SDS011;58152;49.202;18.744;2023-04-03T01:03:53;2.65;;;2.13;;
70588;SDS011;58152;49.202;18.744;2023-04-03T01:06:26;2.10;;;1.90;;
70588;SDS011;58152;49.202;18.744;2023-04-03T01:08:57;1.92;;;1.83;;
70588;SDS011;58152;49.202;18.744;2023-04-03T01:11:24;2.63;;;1.90;;
70588;SDS011;58152;49.202;18.744;2023-04-03T01:13:51;2.40;;;2.05;;
70588;SDS011;58152;49.202;18.744;2023-04-03T01:16:19;2.85;;;2.22;;
70588;SDS011;58152;49.202;18.744;2023-04-03T01:18:44;2.80;;;2.55;;
70588;SDS011;58152;49.202;18.744;2023-04-03T01:21:15;2.75;;;2.30;;
70588;SDS011;58152;49.202;18.744;2023-04-03T01:24:21;2.75;;;2.20;;
70588;SDS011;58152;49.202;18.744;2023-04-03T01:26:53;2.33;;;2.13;;
70588;SDS011;58152;49.202;18.744;2023-04-03T01:29:19;2.78;;;2.20;;
70588;SDS011;58152;49.202;18.744;2023-04-03T01:34:18;2.28;;;2.08;;
70588;SDS011;58152;49.202;18.744;2023-04-03T01:36:44;3.58;;;2.42;;
70588;SDS011;58152;49.202;18.744;2023-04-03T01:39:10;2.58;;;2.00;;
70588;SDS011;58152;49.202;18.744;2023-04-03T01:41:35;2.65;;;2.45;;
70588;SDS011;58152;49.202;18.744;2023-04-03T01:44:01;2.42;;;2.22;;
70588;SDS011;58152;49.202;18.744;2023-04-03T01:46:27;2.67;;;2.10;;
70588;SDS011;58152;49.202;18.744;2023-04-03T01:48:52;2.10;;;1.90;;
70588;SDS011;58152;49.202;18.744;2023-04-03T01:51:18;2.20;;;2.00;;
70588;SDS011;58152;49.202;18.744;2023-04-03T01:53:43;2.70;;;1.90;;
70588;SDS011;58152;49.202;18.744;2023-04-03T01:56:09;1.90;;;1.70;;
70588;SDS011;58152;49.202;18.744;2023-04-03T01:58:35;1.85;;;1.75;;
70588;SDS011;58152;49.202;18.744;2023-04-03T02:01:01;2.45;;;1.85;;
70588;SDS011;58152;49.202;18.744;2023-04-03T02:03:26;2.03;;;1.85;;
70588;SDS011;58152;49.202;18.744;2023-04-03T02:05:52;1.75;;;1.60;;
70588;SDS011;58152;49.202;18.744;2023-04-03T02:08:19;1.98;;;1.60;;
70588;SDS011;58152;49.202;18.744;2023-04-03T02:10:47;1.70;;;1.60;;
70588;SDS011;58152;49.202;18.744;2023-04-03T02:13:15;1.77;;;1.50;;
70588;SDS011;58152;49.202;18.744;2023-04-03T02:15:42;1.50;;;1.40;;
70588;SDS011;58152;49.202;18.744;2023-04-03T02:18:08;1.88;;;1.67;;
70588;SDS011;58152;49.202;18.744;2023-04-03T02:20:34;1.65;;;1.55;;
70588;SDS011;58152;49.202;18.744;2023-04-03T02:23:02;1.58;;;1.48;;
70588;SDS011;58152;49.202;18.744;2023-04-03T02:25:28;1.60;;;1.50;;
70588;SDS011;58152;49.202;18.744;2023-04-03T02:27:55;2.35;;;1.50;;
70588;SDS011;58152;49.202;18.744;2023-04-03T02:30:20;2.03;;;1.73;;
70588;SDS011;58152;49.202;18.744;2023-04-03T02:32:46;2.00;;;1.80;;
70588;SDS011;58152;49.202;18.744;2023-04-03T02:35:12;1.95;;;1.75;;
70588;SDS011;58152;49.202;18.744;2023-04-03T02:37:38;2.00;;;1.80;;
70588;SDS011;58152;49.202;18.744;2023-04-03T02:40:07;3.00;;;2.08;;
70588;SDS011;58152;49.202;18.744;2023-04-03T02:42:33;1.75;;;1.65;;
70588;SDS011;58152;49.202;18.744;2023-04-03T02:44:59;2.03;;;1.70;;
70588;SDS011;58152;49.202;18.744;2023-04-03T02:47:26;2.08;;;1.80;;
70588;SDS011;58152;49.202;18.744;2023-04-03T02:49:52;2.20;;;2.00;;
70588;SDS011;58152;49.202;18.744;2023-04-03T02:52:21;1.92;;;1.83;;
70588;SDS011;58152;49.202;18.744;2023-04-03T02:54:49;1.83;;;1.73;;
70588;SDS011;58152;49.202;18.744;2023-04-03T02:57:18;2.40;;;1.70;;
70588;SDS011;58152;49.202;18.744;2023-04-03T02:59:45;2.15;;;1.70;;
70588;SDS011;58152;49.202;18.744;2023-04-03T03:02:11;2.65;;;1.70;;
70588;SDS011;58152;49.202;18.744;2023-04-03T03:04:50;1.60;;;1.42;;
70588;SDS011;58152;49.202;18.744;2023-04-03T03:07:16;1.77;;;1.67;;
70588;SDS011;58152;49.202;18.744;2023-04-03T03:09:47;2.80;;;2.15;;
70588;SDS011;58152;49.202;18.744;2023-04-03T03:12:27;1.98;;;1.77;;
70588;SDS011;58152;49.202;18.744;2023-04-03T03:15:35;2.15;;;1.77;;
70588;SDS011;58152;49.202;18.744;2023-04-03T03:18:20;2.63;;;1.92;;
70588;SDS011;58152;49.202;18.744;2023-04-03T03:27:15;3.60;;;3.13;;
70588;SDS011;58152;49.202;18.744;2023-04-03T03:29:44;3.22;;;2.92;;
70588;SDS011;58152;49.202;18.744;2023-04-03T03:32:13;2.63;;;2.42;;
70588;SDS011;58152;49.202;18.744;2023-04-03T03:34:38;2.85;;;2.30;;
70588;SDS011;58152;49.202;18.744;2023-04-03T03:37:09;2.55;;;2.15;;
70588;SDS011;58152;49.202;18.744;2023-04-03T03:42:44;2.65;;;2.45;;
70588;SDS011;58152;49.202;18.744;2023-04-03T03:45:09;1.98;;;1.70;;
70588;SDS011;58152;49.202;18.744;2023-04-03T03:47:35;2.35;;;2.20;;
70588;SDS011;58152;49.202;18.744;2023-04-03T03:50:03;2.75;;;2.00;;
70588;SDS011;58152;49.202;18.744;2023-04-03T03:52:29;2.00;;;1.80;;
70588;SDS011;58152;49.202;18.744;2023-04-03T03:54:55;1.95;;;1.85;;
70588;SDS011;58152;49.202;18.744;2023-04-03T03:57:23;2.40;;;2.00;;
70588;SDS011;58152;49.202;18.744;2023-04-03T03:59:50;2.05;;;1.85;;
70588;SDS011;58152;49.202;18.744;2023-04-03T04:02:16;2.15;;;1.83;;
70588;SDS011;58152;49.202;18.744;2023-04-03T04:04:42;1.98;;;1.83;;
70588;SDS011;58152;49.202;18.744;2023-04-03T04:07:07;2.13;;;1.92;;
70588;SDS011;58152;49.202;18.744;2023-04-03T04:09:32;2.72;;;1.90;;
70588;SDS011;58152;49.202;18.744;2023-04-03T04:11:58;2.80;;;2.28;;
70588;SDS011;58152;49.202;18.744;2023-04-03T04:14:23;1.80;;;1.70;;
70588;SDS011;58152;49.202;18.744;2023-04-03T04:16:49;2.10;;;2.00;;
70588;SDS011;58152;49.202;18.744;2023-04-03T04:19:14;1.92;;;1.83;;
70588;SDS011;58152;49.202;18.744;2023-04-03T04:21:40;2.47;;;2.22;;
70588;SDS011;58152;49.202;18.744;2023-04-03T04:24:06;2.55;;;1.98;;
70588;SDS011;58152;49.202;18.744;2023-04-03T04:26:33;2.20;;;2.00;;
70588;SDS011;58152;49.202;18.744;2023-04-03T04:28:59;2.65;;;1.80;;
70588;SDS011;58152;49.202;18.744;2023-04-03T04:31:25;2.53;;;2.13;;
70588;SDS011;58152;49.202;18.744;2023-04-03T04:33:50;3.22;;;2.10;;
70588;SDS011;58152;49.202;18.744;2023-04-03T04:36:16;1.90;;;1.70;;
70588;SDS011;58152;49.202;18.744;2023-04-03T04:38:41;2.30;;;2.10;;
70588;SDS011;58152;49.202;18.744;2023-04-03T04:41:07;1.60;;;1.50;;
70588;SDS011;58152;49.202;18.744;2023-04-03T04:43:33;1.58;;;1.48;;
70588;SDS011;58152;49.202;18.744;2023-04-03T04:46:06;1.83;;;1.70;;
70588;SDS011;58152;49.202;18.744;2023-04-03T04:48:33;1.67;;;1.52;;
70588;SDS011;58152;49.202;18.744;2023-04-03T04:50:59;2.55;;;2.00;;
70588;SDS011;58152;49.202;18.744;2023-04-03T04:56:00;2.00;;;1.80;;
70588;SDS011;58152;49.202;18.744;2023-04-03T04:58:45;3.05;;;2.38;;
70588;SDS011;58152;49.202;18.744;2023-04-03T05:01:10;3.70;;;2.17;;
70588;SDS011;58152;49.202;18.744;2023-04-03T05:03:43;2.85;;;2.45;;
70588;SDS011;58152;49.202;18.744;2023-04-03T05:06:09;2.83;;;2.53;;
70588;SDS011;58152;49.202;18.744;2023-04-03T05:08:34;2.80;;;2.60;;
70588;SDS011;58152;49.202;18.744;2023-04-03T05:11:00;3.33;;;3.03;;
70588;SDS011;58152;49.202;18.744;2023-04-03T05:13:25;3.30;;;3.00;;
70588;SDS011;58152;49.202;18.744;2023-04-03T05:15:51;3.70;;;3.40;;
70588;SDS011;58152;49.202;18.744;2023-04-03T05:18:16;4.20;;;3.80;;
70588;SDS011;58152;49.202;18.744;2023-04-03T05:20:42;5.13;;;4.28;;
70588;SDS011;58152;49.202;18.744;2023-04-03T05:23:09;7.25;;;5.72;;
70588;SDS011;58152;49.202;18.744;2023-04-03T05:25:44;6.93;;;5.05;;
70588;SDS011;58152;49.202;18.744;2023-04-03T05:38:44;3.90;;;3.60;;
70588;SDS011;58152;49.202;18.744;2023-04-03T05:41:12;3.53;;;3.25;;
70588;SDS011;58152;49.202;18.744;2023-04-03T05:43:38;4.50;;;4.10;;
70588;SDS011;58152;49.202;18.744;2023-04-03T05:46:04;5.03;;;4.50;;
70588;SDS011;58152;49.202;18.744;2023-04-03T05:48:35;5.00;;;4.50;;
70588;SDS011;58152;49.202;18.744;2023-04-03T05:51:00;5.85;;;4.30;;
70588;SDS011;58152;49.202;18.744;2023-04-03T05:53:27;5.00;;;4.50;;
70588;SDS011;58152;49.202;18.744;2023-04-03T05:55:54;5.88;;;5.28;;
70588;SDS011;58152;49.202;18.744;2023-04-03T05:58:20;4.80;;;4.38;;
70588;SDS011;58152;49.202;18.744;2023-04-03T06:00:45;5.72;;;4.88;;
70588;SDS011;58152;49.202;18.744;2023-04-03T06:03:11;5.18;;;4.60;;
70588;SDS011;58152;49.202;18.744;2023-04-03T06:05:37;5.38;;;4.78;;
70588;SDS011;58152;49.202;18.744;2023-04-03T06:08:02;5.47;;;4.78;;
70588;SDS011;58152;49.202;18.744;2023-04-03T06:10:28;5.28;;;4.78;;
70588;SDS011;58152;49.202;18.744;2023-04-03T06:12:54;5.18;;;4.65;;
70588;SDS011;58152;49.202;18.744;2023-04-03T06:15:20;5.78;;;4.68;;
70588;SDS011;58152;49.202;18.744;2023-04-03T06:17:46;4.75;;;4.35;;
70588;SDS011;58152;49.202;18.744;2023-04-03T06:20:12;4.65;;;4.25;;
70588;SDS011;58152;49.202;18.744;2023-04-03T06:22:38;5.35;;;4.60;;
70588;SDS011;58152;49.202;18.744;2023-04-03T06:25:04;5.32;;;4.57;;
70588;SDS011;58152;49.202;18.744;2023-04-03T06:27:31;5.80;;;4.20;;
70588;SDS011;58152;49.202;18.744;2023-04-03T06:29:56;6.00;;;4.80;;
70588;SDS011;58152;49.202;18.744;2023-04-03T06:32:22;5.72;;;4.90;;
70588;SDS011;58152;49.202;18.744;2023-04-03T06:34:48;6.30;;;4.88;;
70588;SDS011;58152;49.202;18.744;2023-04-03T06:37:17;5.30;;;4.13;;
70588;SDS011;58152;49.202;18.744;2023-04-03T06:39:44;4.40;;;4.00;;
70588;SDS011;58152;49.202;18.744;2023-04-03T06:42:10;5.40;;;4.32;;
70588;SDS011;58152;49.202;18.744;2023-04-03T06:44:36;4.18;;;3.78;;
70588;SDS011;58152;49.202;18.744;2023-04-03T06:47:02;4.45;;;4.05;;
70588;SDS011;58152;49.202;18.744;2023-04-03T06:49:27;4.95;;;4.40;;
70588;SDS011;58152;49.202;18.744;2023-04-03T06:51:54;5.18;;;3.78;;
70588;SDS011;58152;49.202;18.744;2023-04-03T06:54:19;4.75;;;4.35;;
70588;SDS011;58152;49.202;18.744;2023-04-03T06:56:45;6.35;;;5.38;;
70588;SDS011;58152;49.202;18.744;2023-04-03T06:59:11;5.55;;;4.28;;
70588;SDS011;58152;49.202;18.744;2023-04-03T07:01:41;5.65;;;5.03;;
70588;SDS011;58152;49.202;18.744;2023-04-03T07:04:07;5.20;;;4.55;;
70588;SDS011;58152;49.202;18.744;2023-04-03T07:06:33;5.88;;;4.53;;
70588;SDS011;58152;49.202;18.744;2023-04-03T07:09:00;7.10;;;4.72;;
70588;SDS011;58152;49.202;18.744;2023-04-03T07:11:26;5.65;;;4.45;;
70588;SDS011;58152;49.202;18.744;2023-04-03T07:13:52;5.15;;;4.63;;
70588;SDS011;58152;49.202;18.744;2023-04-03T07:16:18;5.32;;;4.20;;
70588;SDS011;58152;49.202;18.744;2023-04-03T07:18:45;5.18;;;4.47;;
70588;SDS011;58152;49.202;18.744;2023-04-03T07:21:11;6.40;;;4.28;;
70588;SDS011;58152;49.202;18.744;2023-04-03T07:23:37;5.70;;;4.43;;
70588;SDS011;58152;49.202;18.744;2023-04-03T07:26:03;5.22;;;4.13;;
70588;SDS011;58152;49.202;18.744;2023-04-03T07:28:28;5.40;;;4.90;;
70588;SDS011;58152;49.202;18.744;2023-04-03T07:31:05;4.72;;;4.05;;
70588;SDS011;58152;49.202;18.744;2023-04-03T07:33:36;7.22;;;4.43;;
70588;SDS011;58152;49.202;18.744;2023-04-03T07:36:02;4.60;;;4.20;;
70588;SDS011;58152;49.202;18.744;2023-04-03T07:38:28;7.70;;;5.13;;
70588;SDS011;58152;49.202;18.744;2023-04-03T07:40:54;4.80;;;4.10;;
70588;SDS011;58152;49.202;18.744;2023-04-03T07:43:20;5.40;;;4.18;;
70588;SDS011;58152;49.202;18.744;2023-04-03T07:45:46;5.20;;;4.20;;
70588;SDS011;58152;49.202;18.744;2023-04-03T07:48:15;4.15;;;3.72;;
70588;SDS011;58152;49.202;18.744;2023-04-03T07:50:41;5.32;;;4.05;;
70588;SDS011;58152;49.202;18.744;2023-04-03T07:53:07;5.50;;;3.70;;
70588;SDS011;58152;49.202;18.744;2023-04-03T07:55:33;4.03;;;3.63;;
70588;SDS011;58152;49.202;18.744;2023-04-03T07:57:59;4.80;;;4.28;;
70588;SDS011;58152;49.202;18.744;2023-04-03T08:00:27;5.90;;;4.68;;
70588;SDS011;58152;49.202;18.744;2023-04-03T08:02:53;3.95;;;3.38;;
70588;SDS011;58152;49.202;18.744;2023-04-03T08:05:18;7.25;;;4.35;;
70588;SDS011;58152;49.202;18.744;2023-04-03T08:07:44;5.47;;;4.28;;
70588;SDS011;58152;49.202;18.744;2023-04-03T08:10:10;5.68;;;4.35;;
70588;SDS011;58152;49.202;18.744;2023-04-03T08:12:35;6.80;;;3.92;;
70588;SDS011;58152;49.202;18.744;2023-04-03T08:15:02;4.13;;;3.60;;
70588;SDS011;58152;49.202;18.744;2023-04-03T08:17:28;4.30;;;3.67;;
70588;SDS011;58152;49.202;18.744;2023-04-03T08:19:53;3.47;;;3.10;;
70588;SDS011;58152;49.202;18.744;2023-04-03T08:22:19;5.10;;;3.88;;
70588;SDS011;58152;49.202;18.744;2023-04-03T08:24:45;7.53;;;4.43;;
70588;SDS011;58152;49.202;18.744;2023-04-03T08:27:10;5.80;;;4.10;;
70588;SDS011;58152;49.202;18.744;2023-04-03T08:29:36;6.80;;;4.18;;
70588;SDS011;58152;49.202;18.744;2023-04-03T08:32:10;5.32;;;4.10;;
70588;SDS011;58152;49.202;18.744;2023-04-03T08:34:35;4.53;;;3.78;;
70588;SDS011;58152;49.202;18.744;2023-04-03T08:37:02;5.38;;;4.22;;
70588;SDS011;58152;49.202;18.744;2023-04-03T08:39:27;5.07;;;4.05;;
70588;SDS011;58152;49.202;18.744;2023-04-03T08:41:55;5.80;;;3.92;;
70588;SDS011;58152;49.202;18.744;2023-04-03T08:49:49;4.18;;;3.53;;
70588;SDS011;58152;49.202;18.744;2023-04-03T08:52:20;3.92;;;3.35;;
70588;SDS011;58152;49.202;18.744;2023-04-03T08:57:44;3.70;;;2.85;;
70588;SDS011;58152;49.202;18.744;2023-04-03T09:00:19;3.00;;;2.65;;
70588;SDS011;58152;49.202;18.744;2023-04-03T09:02:51;4.18;;;3.15;;
70588;SDS011;58152;49.202;18.744;2023-04-03T09:05:19;2.92;;;2.63;;
70588;SDS011;58152;49.202;18.744;2023-04-03T09:07:51;3.47;;;2.67;;
70588;SDS011;58152;49.202;18.744;2023-04-03T09:10:28;3.55;;;2.22;;
70588;SDS011;58152;49.202;18.744;2023-04-03T09:13:03;2.35;;;2.15;;
70588;SDS011;58152;49.202;18.744;2023-04-03T09:15:34;2.63;;;2.10;;
70588;SDS011;58152;49.202;18.744;2023-04-03T09:20:46;2.65;;;1.50;;
70588;SDS011;58152;49.202;18.744;2023-04-03T09:26:16;2.05;;;1.40;;
70588;SDS011;58152;49.202;18.744;2023-04-03T09:29:02;2.28;;;1.30;;
70588;SDS011;58152;49.202;18.744;2023-04-03T09:31:39;3.70;;;1.90;;
70588;SDS011;58152;49.202;18.744;2023-04-03T09:37:32;2.03;;;1.52;;
70588;SDS011;58152;49.202;18.744;2023-04-03T09:43:53;1.60;;;1.10;;
70588;SDS011;58152;49.202;18.744;2023-04-03T09:49:03;2.05;;;1.65;;
70588;SDS011;58152;49.202;18.744;2023-04-03T09:51:39;2.65;;;1.55;;
70588;SDS011;58152;49.202;18.744;2023-04-03T09:57:16;2.05;;;1.63;;
70588;SDS011;58152;49.202;18.744;2023-04-03T10:00:03;1.63;;;1.30;;
70588;SDS011;58152;49.202;18.744;2023-04-03T10:10:48;16.85;;;12.07;;
70588;SDS011;58152;49.202;18.744;2023-04-03T10:13:36;38.65;;;24.30;;
70588;SDS011;58152;49.202;18.744;2023-04-03T10:16:11;31.70;;;20.50;;
70588;SDS011;58152;49.202;18.744;2023-04-03T10:18:57;10.00;;;6.47;;
70588;SDS011;58152;49.202;18.744;2023-04-03T10:21:33;4.70;;;2.90;;
70588;SDS011;58152;49.202;18.744;2023-04-03T10:29:40;2.38;;;1.80;;
70588;SDS011;58152;49.202;18.744;2023-04-03T10:34:46;2.38;;;1.67;;
70588;SDS011;58152;49.202;18.744;2023-04-03T10:40:02;3.17;;;1.95;;
70588;SDS011;58152;49.202;18.744;2023-04-03T10:42:59;3.63;;;2.22;;
70588;SDS011;58152;49.202;18.744;2023-04-03T10:53:27;3.00;;;1.83;;
70588;SDS011;58152;49.202;18.744;2023-04-03T10:58:27;2.97;;;1.90;;
70588;SDS011;58152;49.202;18.744;2023-04-03T11:00:59;7.53;;;2.17;;
70588;SDS011;58152;49.202;18.744;2023-04-03T11:03:32;4.20;;;2.13;;
70588;SDS011;58152;49.202;18.744;2023-04-03T11:06:04;3.42;;;2.28;;
70588;SDS011;58152;49.202;18.744;2023-04-03T11:08:37;3.85;;;2.28;;
70588;SDS011;58152;49.202;18.744;2023-04-03T11:11:09;2.78;;;2.17;;
70588;SDS011;58152;49.202;18.744;2023-04-03T11:13:42;3.30;;;2.33;;
70588;SDS011;58152;49.202;18.744;2023-04-03T11:16:19;5.07;;;2.38;;
70588;SDS011;58152;49.202;18.744;2023-04-03T11:18:51;2.97;;;2.30;;
70588;SDS011;58152;49.202;18.744;2023-04-03T11:23:51;5.00;;;2.83;;
70588;SDS011;58152;49.202;18.744;2023-04-03T11:26:22;4.22;;;2.60;;
70588;SDS011;58152;49.202;18.744;2023-04-03T11:28:55;3.83;;;2.65;;
70588;SDS011;58152;49.202;18.744;2023-04-03T11:31:29;6.03;;;3.30;;
70588;SDS011;58152;49.202;18.744;2023-04-03T11:36:59;4.25;;;2.90;;
70588;SDS011;58152;49.202;18.744;2023-04-03T11:39:33;3.45;;;2.03;;
70588;SDS011;58152;49.202;18.744;2023-04-03T11:50:46;4.18;;;2.25;;
70588;SDS011;58152;49.202;18.744;2023-04-03T11:55:45;3.67;;;2.38;;
70588;SDS011;58152;49.202;18.744;2023-04-03T11:58:32;5.93;;;3.08;;
70588;SDS011;58152;49.202;18.744;2023-04-03T12:01:00;5.32;;;2.67;;
70588;SDS011;58152;49.202;18.744;2023-04-03T12:13:39;4.20;;;2.63;;
70588;SDS011;58152;49.202;18.744;2023-04-03T12:16:21;3.10;;;2.22;;
70588;SDS011;58152;49.202;18.744;2023-04-03T12:26:36;45.88;;;32.47;;
70588;SDS011;58152;49.202;18.744;2023-04-03T12:29:14;35.20;;;24.13;;
70588;SDS011;58152;49.202;18.744;2023-04-03T12:46:20;4.05;;;2.60;;
70588;SDS011;58152;49.202;18.744;2023-04-03T12:48:52;3.17;;;2.33;;
70588;SDS011;58152;49.202;18.744;2023-04-03T12:51:35;3.10;;;2.30;;
70588;SDS011;58152;49.202;18.744;2023-04-03T12:54:26;4.00;;;2.53;;
70588;SDS011;58152;49.202;18.744;2023-04-03T12:56:52;5.20;;;2.97;;
70588;SDS011;58152;49.202;18.744;2023-04-03T12:59:42;2.38;;;1.90;;
70588;SDS011;58152;49.202;18.744;2023-04-03T13:02:24;4.97;;;1.95;;
70588;SDS011;58152;49.202;18.744;2023-04-03T13:04:52;2.92;;;1.60;;
70588;SDS011;58152;49.202;18.744;2023-04-03T13:07:32;3.88;;;2.22;;
70588;SDS011;58152;49.202;18.744;2023-04-03T13:12:31;3.00;;;2.33;;
70588;SDS011;58152;49.202;18.744;2023-04-03T13:14:58;5.00;;;2.15;;
70588;SDS011;58152;49.202;18.744;2023-04-03T13:17:26;3.42;;;2.10;;
70588;SDS011;58152;49.202;18.744;2023-04-03T13:19:52;3.00;;;2.03;;
70588;SDS011;58152;49.202;18.744;2023-04-03T13:25:08;46.03;;;5.13;;
70588;SDS011;58152;49.202;18.744;2023-04-03T13:27:37;3.00;;;2.30;;
70588;SDS011;58152;49.202;18.744;2023-04-03T13:30:04;4.20;;;2.95;;
70588;SDS011;58152;49.202;18.744;2023-04-03T13:32:43;3.85;;;2.45;;
70588;SDS011;58152;49.202;18.744;2023-04-03T13:40:49;4.07;;;2.38;;
70588;SDS011;58152;49.202;18.744;2023-04-03T13:43:24;3.80;;;2.28;;
70588;SDS011;58152;49.202;18.744;2023-04-03T13:54:51;1.95;;;1.70;;
70588;SDS011;58152;49.202;18.744;2023-04-03T13:57:01;2.95;;;1.67;;
70588;SDS011;58152;49.202;18.744;2023-04-03T13:59:32;2.42;;;1.75;;
70588;SDS011;58152;49.202;18.744;2023-04-03T14:04:32;2.10;;;1.58;;
70588;SDS011;58152;49.202;18.744;2023-04-03T14:07:10;2.85;;;1.73;;
70588;SDS011;58152;49.202;18.744;2023-04-03T14:09:37;3.53;;;2.00;;
70588;SDS011;58152;49.202;18.744;2023-04-03T14:12:06;2.33;;;1.75;;
70588;SDS011;58152;49.202;18.744;2023-04-03T14:14:38;3.08;;;2.17;;
70588;SDS011;58152;49.202;18.744;2023-04-03T14:17:10;2.70;;;2.08;;
70588;SDS011;58152;49.202;18.744;2023-04-03T14:19:41;74.05;;;45.00;;
70588;SDS011;58152;49.202;18.744;2023-04-03T14:22:17;76.10;;;46.25;;
70588;SDS011;58152;49.202;18.744;2023-04-03T14:24:47;40.83;;;26.10;;
70588;SDS011;58152;49.202;18.744;2023-04-03T14:30:17;6.15;;;4.03;;
70588;SDS011;58152;49.202;18.744;2023-04-03T14:32:46;3.58;;;2.53;;
70588;SDS011;58152;49.202;18.744;2023-04-03T14:35:13;4.32;;;2.20;;
70588;SDS011;58152;49.202;18.744;2023-04-03T14:37:40;3.63;;;2.35;;
70588;SDS011;58152;49.202;18.744;2023-04-03T14:40:06;5.30;;;1.85;;
70588;SDS011;58152;49.202;18.744;2023-04-03T14:42:34;3.33;;;1.92;;
70588;SDS011;58152;49.202;18.744;2023-04-03T14:45:03;3.63;;;2.42;;
70588;SDS011;58152;49.202;18.744;2023-04-03T14:47:32;4.20;;;2.60;;
70588;SDS011;58152;49.202;18.744;2023-04-03T14:50:03;5.60;;;2.67;;
70588;SDS011;58152;49.202;18.744;2023-04-03T14:52:31;9.60;;;3.83;;
70588;SDS011;58152;49.202;18.744;2023-04-03T14:54:58;7.55;;;3.70;;
70588;SDS011;58152;49.202;18.744;2023-04-03T14:57:25;7.13;;;3.10;;
70588;SDS011;58152;49.202;18.744;2023-04-03T14:59:53;6.32;;;3.28;;
70588;SDS011;58152;49.202;18.744;2023-04-03T15:04:55;6.47;;;3.60;;
70588;SDS011;58152;49.202;18.744;2023-04-03T15:07:21;8.23;;;3.20;;
70588;SDS011;58152;49.202;18.744;2023-04-03T15:09:49;4.88;;;2.45;;
70588;SDS011;58152;49.202;18.744;2023-04-03T15:12:14;4.13;;;2.47;;
70588;SDS011;58152;49.202;18.744;2023-04-03T15:14:40;4.40;;;1.83;;
70588;SDS011;58152;49.202;18.744;2023-04-03T15:17:05;2.60;;;1.48;;
70588;SDS011;58152;49.202;18.744;2023-04-03T15:19:39;2.40;;;1.77;;
70588;SDS011;58152;49.202;18.744;2023-04-03T15:22:05;2.97;;;1.58;;
70588;SDS011;58152;49.202;18.744;2023-04-03T15:24:30;2.97;;;1.55;;
70588;SDS011;58152;49.202;18.744;2023-04-03T15:26:55;3.88;;;1.90;;
70588;SDS011;58152;49.202;18.744;2023-04-03T15:29:21;4.13;;;2.03;;
70588;SDS011;58152;49.202;18.744;2023-04-03T15:31:46;2.22;;;1.50;;
70588;SDS011;58152;49.202;18.744;2023-04-03T15:34:14;2.40;;;1.60;;
70588;SDS011;58152;49.202;18.744;2023-04-03T15:36:41;3.08;;;1.60;;
70588;SDS011;58152;49.202;18.744;2023-04-03T15:39:06;2.75;;;1.75;;
70588;SDS011;58152;49.202;18.744;2023-04-03T15:41:32;3.45;;;1.83;;
70588;SDS011;58152;49.202;18.744;2023-04-03T15:43:57;4.50;;;2.08;;
70588;SDS011;58152;49.202;18.744;2023-04-03T15:46:23;2.47;;;1.80;;
70588;SDS011;58152;49.202;18.744;2023-04-03T15:48:48;3.97;;;2.20;;
70588;SDS011;58152;49.202;18.744;2023-04-03T15:51:14;1.95;;;1.50;;
70588;SDS011;58152;49.202;18.744;2023-04-03T15:53:40;3.45;;;1.95;;
70588;SDS011;58152;49.202;18.744;2023-04-03T15:56:05;3.78;;;1.85;;
70588;SDS011;58152;49.202;18.744;2023-04-03T15:58:33;3.30;;;2.13;;
70588;SDS011;58152;49.202;18.744;2023-04-03T16:00:58;4.65;;;2.60;;
70588;SDS011;58152;49.202;18.744;2023-04-03T16:03:24;3.88;;;2.60;;
70588;SDS011;58152;49.202;18.744;2023-04-03T16:05:52;4.38;;;2.00;;
70588;SDS011;58152;49.202;18.744;2023-04-03T16:08:18;2.95;;;1.98;;
70588;SDS011;58152;49.202;18.744;2023-04-03T16:10:46;3.15;;;1.88;;
70588;SDS011;58152;49.202;18.744;2023-04-03T16:13:12;4.05;;;2.78;;
70588;SDS011;58152;49.202;18.744;2023-04-03T16:15:38;3.45;;;2.00;;
70588;SDS011;58152;49.202;18.744;2023-04-03T16:18:04;4.20;;;2.60;;
70588;SDS011;58152;49.202;18.744;2023-04-03T16:20:30;3.15;;;2.05;;
70588;SDS011;58152;49.202;18.744;2023-04-03T16:22:57;3.15;;;2.20;;
70588;SDS011;58152;49.202;18.744;2023-04-03T16:25:25;4.28;;;2.60;;
70588;SDS011;58152;49.202;18.744;2023-04-03T16:27:51;4.18;;;2.45;;
70588;SDS011;58152;49.202;18.744;2023-04-03T16:30:17;3.90;;;2.28;;
70588;SDS011;58152;49.202;18.744;2023-04-03T16:32:42;4.30;;;2.63;;
70588;SDS011;58152;49.202;18.744;2023-04-03T16:35:09;4.32;;;2.75;;
70588;SDS011;58152;49.202;18.744;2023-04-03T16:37:38;4.22;;;2.67;;
70588;SDS011;58152;49.202;18.744;2023-04-03T16:40:05;3.78;;;2.63;;
70588;SDS011;58152;49.202;18.744;2023-04-03T16:42:32;3.78;;;2.47;;
70588;SDS011;58152;49.202;18.744;2023-04-03T16:44:57;3.33;;;2.13;;
70588;SDS011;58152;49.202;18.744;2023-04-03T16:47:25;4.25;;;2.65;;
70588;SDS011;58152;49.202;18.744;2023-04-03T16:49:50;3.22;;;2.10;;
70588;SDS011;58152;49.202;18.744;2023-04-03T16:52:16;4.32;;;2.20;;
70588;SDS011;58152;49.202;18.744;2023-04-03T16:54:44;2.95;;;2.38;;
70588;SDS011;58152;49.202;18.744;2023-04-03T16:57:13;3.70;;;2.47;;
70588;SDS011;58152;49.202;18.744;2023-04-03T16:59:38;3.60;;;2.08;;
70588;SDS011;58152;49.202;18.744;2023-04-03T17:02:04;3.85;;;2.25;;
70588;SDS011;58152;49.202;18.744;2023-04-03T17:04:29;4.10;;;2.33;;
70588;SDS011;58152;49.202;18.744;2023-04-03T17:06:55;4.30;;;2.10;;
70588;SDS011;58152;49.202;18.744;2023-04-03T17:09:21;3.85;;;2.70;;
70588;SDS011;58152;49.202;18.744;2023-04-03T17:11:47;4.38;;;2.25;;
70588;SDS011;58152;49.202;18.744;2023-04-03T17:14:13;3.50;;;2.70;;
70588;SDS011;58152;49.202;18.744;2023-04-03T17:16:39;3.03;;;2.53;;
70588;SDS011;58152;49.202;18.744;2023-04-03T17:19:05;3.80;;;2.35;;
70588;SDS011;58152;49.202;18.744;2023-04-03T17:21:31;4.40;;;2.60;;
70588;SDS011;58152;49.202;18.744;2023-04-03T17:24:02;4.07;;;2.63;;
70588;SDS011;58152;49.202;18.744;2023-04-03T17:26:32;5.38;;;3.05;;